Atiramapattinam, India

7:15 AM IST on September 03, 2014 (GMT +0530)
Tiruchirappalli | Change Station
CLOSE
Current Station
Airport
Location: Triuchirapalli,
Elevation: 289 ft
Nearby Weather Stations

Elev 289 ft 10.77 °N, 78.71 °E | Updated 35 minutes ago

Haze
Haze
81 °F
Feels Like 85 °F
N
0
Wind Variable Wind from North

Today
High -- | Low -- °F
--% Chance of Precip.
Yesterday
High -- | Low -- °F
Precip. -- in
6:02 AM 6:20 PM
First Quarter, 57% visible
Pressure 29.77 in
Visibility 3.1 miles
Clouds Few 1800 ft
Scattered Clouds 10000 ft
Heat Index 85 °F
Dew Point 73 °F
Humidity 79%
Rainfall 0.00 in
Snow Depth Not available.
UV 0 out of 12
Pollen Not available.
Air Quality Not available.
Flu Activity Not available.
METAR VOTR 030110Z 00000KT 5000 HZ FEW018 SCT100 27/23 Q1008 NOSIG

More Conditions Fewer Conditions

Pressure 29.77 in
Visibility 3.1 miles
Clouds Few 1800 ft
Scattered Clouds 10000 ft
Heat Index 85 °F
Dew Point 73 °F
Humidity 79%
Rainfall 0.00 in
Snow Depth Not available.
UV 0 out of 12
Pollen Not available.
Air Quality Not available.
Flu Activity Not available.
METAR VOTR 030110Z 00000KT 5000 HZ FEW018 SCT100 27/23 Q1008 NOSIG

More Conditions Fewer Conditions

10-Day Weather Forecast

Almanac

Astronomy

Sep. 03, 2014 Rise Set
Actual Time 6:02 AM IST 6:20 PM IST
Civil Twilight 5:41 AM IST 6:41 PM IST
Nautical Twilight 5:17 AM IST 7:06 PM IST
Astronomical Twilight 4:52 AM IST 7:31 PM IST
Moon 1:02 PM IST No Moon Set
Length of Visible Light 13h 00m
Length of Day
12h 17m
Tomorrow will be 0m 33s shorter.
First Quarter, 57% of the Moon is Illuminated
Sep 2
First Quarter
Sep 8
Full
Sep 15
Last Quarter
Sep 24
New
Oct 1
First Quarter

Yesterday's Extremes

Country Highs Country Lows

Community

WunderPhotos

Upload Photos

1,749,829 photos uploaded!

Nearby

Snow Depth

Not available.

Earthquake Activity

City Distance Mag. Time & Date
No recent earthquake activity has been reported nearby.
Minimum magnitude displayed is 2.5.

Coastal Water Temperatures

Place Temperature
No Stations Reporting

Nearby Weather Stations